Time;durP1;ratioP1;P1;durP2;ratioP2;P2;SDS_P1;SDS_P2;PMS_P1;PMS_P2;Temp;Humidity;BMP_temperature;BMP_pressure;BME280_temperature;BME280_humidity;BME280_pressure;Samples;Min_cycle;Max_cycle;Signal;HPM_P1;HPM_P2
2023/01/13 00:01:57;;;;;;;34.63;6.95;;;;;;;7.80;100.00;100147.16;5031221;28;20489;-61
2023/01/13 00:04:22;;;;;;;35.35;6.50;;;;;;;7.50;100.00;100095.75;5016808;28;20451;-60
2023/01/13 00:06:48;;;;;;;33.15;7.20;;;;;;;7.47;100.00;100091.50;5034874;28;20123;-61
2023/01/13 00:09:13;;;;;;;32.72;7.10;;;;;;;7.48;100.00;100100.16;5034261;28;20045;-61
2023/01/13 00:11:38;;;;;;;27.55;6.93;;;;;;;7.66;100.00;100142.38;5034609;28;20120;-61
2023/01/13 00:14:04;;;;;;;32.88;6.88;;;;;;;7.81;100.00;100157.59;5017033;28;20048;-63
2023/01/13 00:16:29;;;;;;;27.42;5.88;;;;;;;7.89;100.00;100162.59;5034694;28;20083;-61
2023/01/13 00:18:54;;;;;;;24.67;6.80;;;;;;;7.82;100.00;100153.22;5034438;28;20420;-61
2023/01/13 00:21:22;;;;;;;28.75;6.93;;;;;;;7.54;100.00;100047.59;5016470;28;20041;-61
2023/01/13 00:23:48;;;;;;;29.90;5.22;;;;;;;7.94;100.00;100130.09;5016793;28;20040;-63
2023/01/13 00:26:20;;;;;;;29.50;6.78;;;;;;;8.09;100.00;100156.69;5016426;28;20041;-61
2023/01/13 00:28:46;;;;;;;31.83;6.82;;;;;;;8.13;100.00;100140.81;5034248;28;20112;-62
2023/01/13 00:31:14;;;;;;;35.67;7.25;;;;;;;7.78;100.00;100063.38;5016447;28;20560;-61
2023/01/13 00:33:39;;;;;;;29.02;6.80;;;;;;;8.19;100.00;100118.78;5016416;28;20473;-61
2023/01/13 00:36:06;;;;;;;38.13;6.93;;;;;;;8.20;100.00;100123.97;5034207;28;20041;-60
2023/01/13 00:38:33;;;;;;;34.88;7.15;;;;;;;7.77;100.00;100048.56;5016054;28;20477;-60
2023/01/13 00:41:07;;;;;;;37.38;6.70;;;;;;;8.20;100.00;100144.09;5033917;28;20044;-61
2023/01/13 00:43:33;;;;;;;39.03;7.70;;;;;;;8.13;100.00;100122.47;5033783;28;20365;-61
2023/01/13 00:45:59;;;;;;;32.97;7.07;;;;;;;8.03;100.00;100113.19;5016170;28;20041;-61
2023/01/13 00:48:25;;;;;;;29.38;7.15;;;;;;;7.84;100.00;100078.91;5016320;28;20052;-61
2023/01/13 00:50:55;;;;;;;35.78;7.72;;;;;;;8.06;100.00;100105.22;5015968;28;20040;-60
2023/01/13 00:53:21;;;;;;;37.75;8.65;;;;;;;8.07;100.00;100086.00;5016227;28;20405;-61
2023/01/13 00:55:46;;;;;;;40.60;8.07;;;;;;;8.05;100.00;100089.56;5033743;28;20036;-60
2023/01/13 00:58:11;;;;;;;36.08;7.28;;;;;;;7.91;100.00;100055.94;5033726;28;20044;-61
2023/01/13 01:00:36;;;;;;;33.40;8.50;;;;;;;7.97;100.00;100079.31;5033648;28;20044;-61
2023/01/13 01:03:02;;;;;;;33.90;7.18;;;;;;;7.57;100.00;100005.59;5033425;28;20038;-59
2023/01/13 01:05:27;;;;;;;33.95;7.32;;;;;;;7.66;100.00;100047.22;5033602;28;20049;-60
2023/01/13 01:07:52;;;;;;;38.28;7.53;;;;;;;6.77;100.00;99899.19;4999464;28;20041;-60
2023/01/13 01:10:18;;;;;;;37.40;7.68;;;;;;;7.87;100.00;100083.19;5033691;28;20034;-59
2023/01/13 01:12:43;;;;;;;36.53;7.00;;;;;;;7.51;100.00;100026.75;5033355;28;20033;-60
2023/01/13 01:15:09;;;;;;;42.05;9.45;;;;;;;7.85;100.00;100064.03;5014741;28;20566;-62
2023/01/13 01:17:35;;;;;;;41.95;8.80;;;;;;;7.95;100.00;100075.91;5033292;28;20041;-60
2023/01/13 01:20:02;;;;;;;46.28;9.85;;;;;;;7.65;100.00;100014.06;4999482;28;20048;-60
2023/01/13 01:22:27;;;;;;;33.08;6.78;;;;;;;7.69;100.00;100024.41;5033233;28;20036;-60
2023/01/13 01:24:53;;;;;;;36.53;7.80;;;;;;;8.04;100.00;100093.09;5015260;28;20419;-60
2023/01/13 01:27:18;;;;;;;37.90;7.20;;;;;;;7.96;100.00;100082.00;5015628;28;20400;-60
2023/01/13 01:29:43;;;;;;;35.40;7.45;;;;;;;8.00;100.00;100097.56;5032866;28;20381;-60
2023/01/13 01:32:08;;;;;;;43.00;7.88;;;;;;;8.00;100.00;100088.88;5032967;28;20033;-60
2023/01/13 01:34:34;;;;;;;40.97;8.45;;;;;;;7.75;100.00;100060.88;5032915;28;20038;-61
2023/01/13 01:36:59;;;;;;;39.30;7.72;;;;;;;7.61;100.00;100034.28;5032895;28;20037;-61
2023/01/13 01:39:25;;;;;;;34.47;9.43;;;;;;;7.94;100.00;100084.66;5032869;28;20026;-61
2023/01/13 01:44:40;;;;;;;36.30;9.13;;;;;;;7.90;100.00;100098.81;5032760;28;20179;-61
2023/01/13 01:47:06;;;;;;;37.88;7.88;;;;;;;7.85;100.00;100088.47;5032754;28;20033;-60
2023/01/13 01:49:32;;;;;;;36.60;7.65;;;;;;;7.86;100.00;100087.56;5014455;28;20106;-62
2023/01/13 01:52:02;;;;;;;35.80;7.95;;;;;;;7.43;100.00;100032.25;5015150;28;20114;-61
2023/01/13 01:54:38;;;;;;;36.80;8.43;;;;;;;7.93;100.00;100101.31;5015117;28;20036;-61
2023/01/13 01:57:05;;;;;;;42.47;8.88;;;;;;;7.45;100.00;100026.94;5032567;28;20645;-61
2023/01/13 01:59:31;;;;;;;35.95;7.60;;;;;;;7.86;100.00;100087.56;5014937;28;20045;-61
2023/01/13 02:01:57;;;;;;;35.83;7.50;;;;;;;7.18;100.00;99966.72;5014366;28;20037;-60
2023/01/13 02:04:27;;;;;;;36.60;8.18;;;;;;;8.00;100.00;100088.88;5014495;28;20060;-60
2023/01/13 02:06:52;;;;;;;46.67;9.00;;;;;;;7.65;100.00;100017.53;5014816;28;20075;-61
2023/01/13 02:09:17;;;;;;;50.90;8.63;;;;;;;8.06;100.00;100073.78;5014883;28;20284;-61
2023/01/13 02:14:28;;;;;;;33.95;8.35;;;;;;;7.99;100.00;100035.59;5032475;28;20088;-60
2023/01/13 02:17:05;;;;;;;41.35;8.30;;;;;;;7.73;100.00;99980.63;5014666;28;20120;-60
2023/01/13 02:19:49;;;;;;;48.38;9.13;;;;;;;8.18;100.00;100068.13;5032481;28;20116;-61
2023/01/13 02:22:24;;;;;;;37.30;7.85;;;;;;;7.94;100.00;100024.41;5032271;28;20104;-62
2023/01/13 02:25:04;;;;;;;44.33;9.02;;;;;;;7.55;100.00;99963.78;5014229;28;20103;-61
2023/01/13 02:27:39;;;;;;;47.08;8.48;;;;;;;8.08;100.00;100069.38;5031884;28;20030;-61
2023/01/13 02:33:23;;;;;;;42.75;10.00;;;;;;;8.10;100.00;100043.09;5017161;28;20048;-60
2023/01/13 02:36:06;;;;;;;30.33;7.45;;;;;;;8.20;100.00;100061.03;5031926;28;20425;-60
2023/01/13 02:38:57;;;;;;;44.67;9.98;;;;;;;8.23;100.00;100055.69;4998243;28;20087;-61
2023/01/13 02:44:29;;;;;;;40.72;9.70;;;;;;;8.20;100.00;100054.97;5031797;28;20515;-61
2023/01/13 02:46:59;;;;;;;40.17;8.98;;;;;;;8.25;100.00;100055.66;5014333;28;20567;-61
2023/01/13 02:49:34;;;;;;;47.20;9.38;;;;;;;8.28;100.00;100061.69;5014163;28;20112;-59
2023/01/13 02:52:06;;;;;;;34.03;8.27;;;;;;;8.28;100.00;100069.56;5031044;28;20057;-63
2023/01/13 02:54:32;;;;;;;42.15;8.38;;;;;;;7.78;100.00;100000.50;5031701;28;20041;-60
2023/01/13 02:56:59;;;;;;;33.95;7.40;;;;;;;8.22;100.00;100064.50;5014048;28;20435;-62
2023/01/13 02:59:26;;;;;;;28.42;6.70;;;;;;;7.81;100.00;99997.78;5013895;28;20037;-60
2023/01/13 03:01:54;;;;;;;31.30;8.30;;;;;;;7.92;100.00;100032.34;5014100;28;20419;-61
2023/01/13 03:04:46;;;;;;;33.22;8.32;;;;;;;8.20;100.00;100074.16;5031226;28;20036;-60
2023/01/13 03:07:21;;;;;;;30.58;6.95;;;;;;;8.16;100.00;100075.19;5013763;28;20040;-61
2023/01/13 03:10:10;;;;;;;31.73;7.00;;;;;;;7.70;100.00;100007.78;5031596;28;20056;-60
2023/01/13 03:12:50;;;;;;;28.92;6.88;;;;;;;8.08;100.00;100094.72;5013823;28;20034;-60
2023/01/13 03:15:45;;;;;;;30.55;6.18;;;;;;;7.55;100.00;99994.34;5013687;28;20030;-60
2023/01/13 03:18:14;;;;;;;31.98;6.20;;;;;;;7.62;100.00;100001.06;5031535;28;20040;-62
2023/01/13 03:20:48;;;;;;;30.67;7.45;;;;;;;7.69;100.00;100018.28;5031530;28;20588;-61
2023/01/13 03:23:23;;;;;;;30.60;5.78;;;;;;;7.52;100.00;99994.44;5031442;28;20030;-61
2023/01/13 03:25:56;;;;;;;29.13;6.47;;;;;;;7.92;100.00;100044.56;5013520;28;20029;-63
2023/01/13 03:28:29;;;;;;;37.55;7.20;;;;;;;8.01;100.00;100065.22;4997519;28;20083;-60
2023/01/13 03:31:06;;;;;;;28.98;5.30;;;;;;;7.94;100.00;100068.94;5031206;28;20060;-61
2023/01/13 03:33:39;;;;;;;26.65;6.20;;;;;;;7.83;100.00;100050.13;5013587;28;20025;-60
2023/01/13 03:36:08;;;;;;;35.30;5.85;;;;;;;7.68;100.00;100035.78;5031389;28;20082;-62
2023/01/13 03:38:41;;;;;;;22.75;5.32;;;;;;;7.68;100.00;100020.06;5034211;28;20041;-62
2023/01/13 03:41:17;;;;;;;27.27;4.75;;;;;;;7.72;100.00;100026.06;5017128;28;20041;-61
2023/01/13 03:46:42;;;;;;;23.40;5.03;;;;;;;7.41;100.00;99980.84;5035026;28;20491;-61
2023/01/13 03:49:08;;;;;;;32.55;5.13;;;;;;;7.47;100.00;99994.59;5017536;28;20519;-60
2023/01/13 03:51:38;;;;;;;21.55;4.40;;;;;;;7.70;100.00;100033.13;5017559;28;20033;-61
2023/01/13 03:54:07;;;;;;;25.17;5.35;;;;;;;7.35;100.00;99966.19;5017275;28;20037;-61
2023/01/13 03:56:38;;;;;;;20.20;4.00;;;;;;;7.79;100.00;100051.16;5017095;28;20299;-60
2023/01/13 03:59:06;;;;;;;18.67;4.68;;;;;;;7.77;100.00;100038.09;5017380;28;20510;-62
2023/01/13 04:01:58;;;;;;;22.98;4.85;;;;;;;7.32;100.00;99971.53;5017482;28;20116;-60
2023/01/13 04:04:43;;;;;;;28.38;5.68;;;;;;;7.68;100.00;100059.34;5033186;28;20140;-62
2023/01/13 04:07:46;;;;;;;15.52;4.05;;;;;;;7.67;100.00;100049.78;5034672;28;20096;-60
2023/01/13 04:10:16;;;;;;;18.17;4.70;;;;;;;7.29;100.00;99990.81;5034649;28;20037;-65
2023/01/13 04:13:01;;;;;;;13.52;3.72;;;;;;;7.62;100.00;100056.91;5016655;28;20030;-62
2023/01/13 04:15:37;;;;;;;16.90;4.07;;;;;;;7.54;100.00;100026.66;5034636;28;20041;-62
2023/01/13 04:18:23;;;;;;;9.65;3.03;;;;;;;7.63;100.00;100071.75;5017007;28;20036;-60
2023/01/13 04:20:50;;;;;;;16.02;3.90;;;;;;;7.23;100.00;99990.16;5034514;28;20067;-60
2023/01/13 04:23:16;;;;;;;21.50;4.28;;;;;;;7.62;100.00;100043.81;5034167;28;20400;-62
2023/01/13 04:25:42;;;;;;;15.70;3.80;;;;;;;7.27;100.00;99997.84;5016562;28;20040;-60
2023/01/13 04:28:10;;;;;;;18.60;4.28;;;;;;;7.20;100.00;99978.03;5034599;28;20037;-60
2023/01/13 04:30:36;;;;;;;15.35;3.65;;;;;;;7.35;100.00;100006.31;5016376;28;20025;-61
2023/01/13 04:33:03;;;;;;;17.75;3.55;;;;;;;7.33;100.00;99996.78;5034231;28;20034;-61
2023/01/13 04:35:28;;;;;;;17.23;4.13;;;;;;;7.56;100.00;100020.47;5034157;28;20065;-60
2023/01/13 04:37:53;;;;;;;23.95;4.05;;;;;;;7.69;100.00;100062.81;5016487;28;20480;-63
2023/01/13 04:40:19;;;;;;;18.77;3.80;;;;;;;7.34;100.00;100008.97;5034049;28;20090;-61
2023/01/13 04:42:44;;;;;;;11.63;2.90;;;;;;;7.74;100.00;100072.25;5033932;28;20044;-60
2023/01/13 04:45:10;;;;;;;19.13;4.32;;;;;;;7.72;100.00;100040.00;5034136;28;20036;-60
2023/01/13 04:47:36;;;;;;;18.35;3.65;;;;;;;7.85;100.00;100066.66;5033946;28;20065;-60
2023/01/13 04:50:01;;;;;;;17.48;4.38;;;;;;;7.85;100.00;100061.44;5033442;28;20033;-60
2023/01/13 04:52:26;;;;;;;20.70;3.63;;;;;;;8.04;100.00;100086.09;5016262;28;20033;-61
2023/01/13 04:54:51;;;;;;;22.35;3.80;;;;;;;7.75;100.00;100042.53;5033242;28;20065;-59
2023/01/13 04:57:17;;;;;;;18.67;3.60;;;;;;;7.63;100.00;100035.06;5034029;28;20115;-59
2023/01/13 04:59:42;;;;;;;14.43;3.20;;;;;;;7.92;100.00;100082.13;5033802;28;20045;-61
2023/01/13 05:02:08;;;;;;;16.00;3.03;;;;;;;7.74;100.00;100055.66;5034020;28;20361;-61
2023/01/13 05:04:34;;;;;;;18.08;3.83;;;;;;;7.94;100.00;100095.16;5033378;28;20516;-60
2023/01/13 05:06:59;;;;;;;13.98;3.58;;;;;;;7.87;100.00;100093.66;5033577;28;20065;-60
2023/01/13 05:09:24;;;;;;;16.30;4.03;;;;;;;7.46;100.00;100018.19;5033474;28;20485;-61
2023/01/13 05:17:21;;;;;;;17.45;3.88;;;;;;;7.61;100.00;100022.94;5033710;28;20116;-60
2023/01/13 05:19:46;;;;;;;20.42;4.47;;;;;;;7.56;100.00;100020.47;5032794;28;20030;-60
2023/01/13 05:27:40;;;;;;;19.77;4.07;;;;;;;7.79;100.00;100077.34;5033421;28;20167;-61
2023/01/13 05:30:06;;;;;;;19.10;3.85;;;;;;;7.42;100.00;99996.50;5032971;28;20128;-62
2023/01/13 05:32:31;;;;;;;18.65;4.18;;;;;;;7.48;100.00;100021.63;5033267;28;20112;-60
2023/01/13 05:34:56;;;;;;;19.25;4.43;;;;;;;7.77;100.00;100079.13;5015382;28;20049;-61
2023/01/13 05:37:22;;;;;;;25.25;4.35;;;;;;;7.36;100.00;100012.41;5033223;28;20041;-60
2023/01/13 05:45:15;;;;;;;25.48;4.35;;;;;;;7.61;100.00;100104.13;5033148;28;20470;-61
2023/01/13 05:47:40;;;;;;;21.05;4.95;;;;;;;7.58;100.00;100094.63;5015108;28;20124;-61
2023/01/13 05:50:06;;;;;;;20.17;4.25;;;;;;;7.66;100.00;100089.13;5032712;28;20033;-60
2023/01/13 05:52:32;;;;;;;16.45;4.00;;;;;;;7.68;100.00;100098.63;5032613;28;20056;-62
2023/01/13 05:54:57;;;;;;;21.98;4.15;;;;;;;7.64;100.00;100062.13;5014647;28;20163;-60
2023/01/13 05:57:22;;;;;;;15.77;3.97;;;;;;;7.78;100.00;100088.72;5032300;28;20412;-60
2023/01/13 05:59:47;;;;;;;15.82;3.38;;;;;;;7.30;100.00;100004.75;5032080;28;20045;-60
2023/01/13 06:02:13;;;;;;;22.60;3.67;;;;;;;7.78;100.00;100101.81;5032438;28;20033;-61
2023/01/13 06:04:38;;;;;;;16.50;4.72;;;;;;;7.92;100.00;100097.84;5011419;28;20556;-60
2023/01/13 06:07:04;;;;;;;20.85;4.63;;;;;;;7.94;100.00;100108.25;5011503;28;20037;-60
2023/01/13 06:09:29;;;;;;;13.15;4.10;;;;;;;7.66;100.00;100052.44;5013060;28;20048;-60
2023/01/13 06:11:54;;;;;;;20.02;4.32;;;;;;;7.93;100.00;100102.19;5012091;28;20496;-62
2023/01/13 06:14:19;;;;;;;20.17;4.10;;;;;;;7.62;100.00;100022.00;5011620;28;20034;-60
2023/01/13 06:16:45;;;;;;;21.20;5.00;;;;;;;7.74;100.00;100026.84;5012650;28;20037;-62
2023/01/13 06:19:12;;;;;;;20.40;4.43;;;;;;;7.67;100.00;100018.38;5012452;28;20085;-64
2023/01/13 06:21:38;;;;;;;19.20;4.95;;;;;;;7.80;100.00;100058.09;5011395;28;20030;-62
2023/01/13 06:24:04;;;;;;;22.75;4.05;;;;;;;7.83;100.00;100061.47;5010545;28;20041;-61
2023/01/13 06:26:32;;;;;;;20.83;4.10;;;;;;;7.84;100.00;100047.47;5011905;28;20038;-61
2023/01/13 06:28:57;;;;;;;22.10;4.60;;;;;;;7.80;100.00;100044.97;5010899;28;20029;-60
2023/01/13 06:31:23;;;;;;;24.05;6.05;;;;;;;7.82;100.00;100064.16;5012496;28;20033;-61
2023/01/13 06:33:52;;;;;;;21.02;4.28;;;;;;;8.04;100.00;100091.34;5011816;28;20034;-60
2023/01/13 06:36:24;;;;;;;21.33;4.75;;;;;;;8.21;100.00;100127.44;5011967;28;20113;-60
2023/01/13 06:38:53;;;;;;;22.88;4.13;;;;;;;7.81;100.00;100046.69;5010320;28;20053;-61
2023/01/13 06:43:13;;;;;;;21.95;4.53;;;;;;;7.87;100.00;100068.31;5010521;28;20049;-60
2023/01/13 06:44:08;;;;;;;22.42;4.18;;;;;;;7.79;100.00;100056.38;5010360;28;20125;-60
2023/01/13 06:46:34;;;;;;;19.17;4.15;;;;;;;8.24;100.00;100138.69;5011789;28;20120;-60
2023/01/13 06:48:59;;;;;;;16.65;3.95;;;;;;;8.16;100.00;100101.41;5011995;28;20500;-59
2023/01/13 06:51:25;;;;;;;19.83;4.63;;;;;;;7.73;100.00;100064.44;5009808;28;20121;-60
2023/01/13 06:53:50;;;;;;;20.55;4.75;;;;;;;7.83;100.00;100064.09;5011995;28;20061;-60
2023/01/13 06:56:15;;;;;;;19.02;4.75;;;;;;;7.81;100.00;100080.75;5011954;28;20042;-60
2023/01/13 06:58:41;;;;;;;24.77;5.30;;;;;;;8.21;100.00;100154.53;5011856;28;20033;-60
2023/01/13 07:01:06;;;;;;;25.10;4.85;;;;;;;7.82;100.00;100085.94;5010418;28;20500;-60
2023/01/13 07:03:31;;;;;;;17.77;4.55;;;;;;;8.26;100.00;100142.13;5011722;28;20038;-60
2023/01/13 07:05:57;;;;;;;16.70;4.35;;;;;;;8.32;100.00;100133.22;5027650;28;20064;-62
2023/01/13 07:08:23;;;;;;;20.10;4.68;;;;;;;8.34;100.00;100139.28;5013995;28;20048;-61
2023/01/13 07:10:50;;;;;;;18.75;4.97;;;;;;;8.21;100.00;100123.06;5013753;28;20065;-60
2023/01/13 07:16:02;;;;;;;25.02;5.80;;;;;;;8.37;100.00;100147.91;5035353;28;20111;-60
2023/01/13 07:18:30;;;;;;;17.77;4.38;;;;;;;8.41;100.00;100151.25;5034964;28;20045;-60
2023/01/13 07:21:11;;;;;;;26.25;4.55;;;;;;;8.39;100.00;100146.06;5035534;28;20033;-61
2023/01/13 07:23:38;;;;;;;20.60;4.65;;;;;;;8.42;100.00;100160.84;5017830;28;20444;-61
2023/01/13 07:26:05;;;;;;;17.10;5.03;;;;;;;8.46;100.00;100165.09;5035344;28;20029;-61
2023/01/13 07:28:31;;;;;;;27.63;4.88;;;;;;;8.33;100.00;100127.06;5035161;28;20474;-59
2023/01/13 07:30:57;;;;;;;24.23;4.72;;;;;;;8.04;100.00;100088.72;5017487;28;20061;-61
2023/01/13 07:33:22;;;;;;;30.38;5.55;;;;;;;8.41;100.00;100156.50;5017323;28;20087;-61
2023/01/13 07:36:01;;;;;;;25.40;4.28;;;;;;;8.46;100.00;100162.47;5035456;28;20025;-60
2023/01/13 07:38:27;;;;;;;19.92;5.07;;;;;;;7.64;100.00;100014.97;5035207;28;20496;-61
2023/01/13 07:40:52;;;;;;;20.27;4.55;;;;;;;8.02;100.00;100089.69;5034515;28;20302;-60
2023/01/13 07:43:32;;;;;;;21.55;4.95;;;;;;;7.60;100.00;100010.75;5034890;28;20473;-61
2023/01/13 07:45:59;;;;;;;17.65;4.20;;;;;;;8.34;100.00;100153.25;5035154;28;20038;-62
2023/01/13 07:48:28;;;;;;;16.48;3.67;;;;;;;8.49;100.00;100165.81;5034719;28;20439;-60
2023/01/13 07:50:54;;;;;;;16.38;4.03;;;;;;;8.51;100.00;100181.50;5034813;28;20040;-59
2023/01/13 07:53:20;;;;;;;16.25;4.18;;;;;;;8.38;100.00;100143.50;5034822;28;20037;-61
2023/01/13 07:55:45;;;;;;;23.08;4.47;;;;;;;8.58;100.00;100177.75;5034703;28;20180;-61
2023/01/13 07:58:11;;;;;;;22.38;5.15;;;;;;;8.58;100.00;100203.16;5034521;28;20116;-61
2023/01/13 08:00:37;;;;;;;17.95;4.15;;;;;;;8.12;100.00;100125.13;5034515;28;20493;-60
2023/01/13 08:03:03;;;;;;;18.08;4.18;;;;;;;8.08;100.00;100110.44;5034335;28;20076;-60
2023/01/13 08:05:29;;;;;;;20.77;4.70;;;;;;;8.49;100.00;100214.81;5034448;28;20049;-59
2023/01/13 08:07:54;;;;;;;20.90;4.07;;;;;;;8.03;100.00;100122.81;5034904;28;20045;-60
2023/01/13 08:10:19;;;;;;;24.63;5.07;;;;;;;7.81;100.00;100102.59;5033957;28;20039;-60
2023/01/13 08:15:30;;;;;;;40.63;5.60;;;;;;;7.65;100.00;100121.44;5034411;28;20411;-61
2023/01/13 08:17:56;;;;;;;23.52;5.68;;;;;;;7.55;100.00;100122.66;5034482;28;20038;-61
2023/01/13 08:20:21;;;;;;;20.95;4.57;;;;;;;7.57;100.00;100149.66;5016575;28;20040;-60
2023/01/13 08:22:46;;;;;;;21.25;4.53;;;;;;;7.41;100.00;100140.56;5033612;28;20047;-61
2023/01/13 08:25:12;;;;;;;21.92;5.05;;;;;;;7.27;100.00;100118.25;5034125;28;20488;-60
2023/01/13 08:27:37;;;;;;;20.67;5.00;;;;;;;7.74;100.00;100203.22;5034696;28;20037;-60
2023/01/13 08:30:04;;;;;;;27.42;4.85;;;;;;;7.80;100.00;100212.66;5034349;28;20065;-60
2023/01/13 08:32:29;;;;;;;28.38;6.53;;;;;;;7.35;100.00;100134.59;5016417;28;20057;-61
2023/01/13 08:34:55;;;;;;;20.33;5.07;;;;;;;7.69;100.00;100191.19;5033170;28;20038;-61
2023/01/13 08:37:20;;;;;;;24.30;5.20;;;;;;;7.76;100.00;100216.28;5031535;28;20467;-62
2023/01/13 08:39:45;;;;;;;25.20;5.82;;;;;;;7.66;100.00;100184.28;5032398;28;20033;-61
2023/01/13 08:42:11;;;;;;;24.15;5.07;;;;;;;7.32;100.00;100146.94;5032622;28;20037;-61
2023/01/13 08:44:36;;;;;;;23.98;5.65;;;;;;;7.17;100.00;100145.63;5032281;28;20116;-60
2023/01/13 08:47:01;;;;;;;25.45;4.15;;;;;;;7.18;100.00;100131.63;5032201;28;20393;-60
2023/01/13 08:49:27;;;;;;;26.90;5.05;;;;;;;7.55;100.00;100209.94;5032500;28;20041;-60
2023/01/13 08:51:52;;;;;;;19.27;5.40;;;;;;;7.47;100.00;100213.69;5032156;28;20034;-60
2023/01/13 08:54:18;;;;;;;23.88;5.97;;;;;;;7.63;100.00;100231.50;5014668;28;20033;-61
2023/01/13 08:56:44;;;;;;;20.02;4.72;;;;;;;7.22;100.00;100162.03;5014534;28;20484;-60
2023/01/13 08:59:13;;;;;;;26.88;5.85;;;;;;;7.52;100.00;100217.88;5032052;28;20485;-61
2023/01/13 09:01:39;;;;;;;27.00;5.05;;;;;;;7.24;100.00;100160.22;5032406;28;20041;-60
2023/01/13 09:04:06;;;;;;;22.13;5.10;;;;;;;7.51;100.00;100183.88;5031844;28;20046;-59
2023/01/13 09:06:32;;;;;;;23.48;4.68;;;;;;;7.41;100.00;100161.50;5032225;28;20029;-59
2023/01/13 09:08:58;;;;;;;20.45;4.90;;;;;;;7.50;100.00;100162.06;5014142;28;20412;-61
2023/01/13 09:14:20;;;;;;;24.92;5.25;;;;;;;8.22;100.00;100258.50;5016801;28;20052;-60
2023/01/13 09:16:46;;;;;;;20.45;4.53;;;;;;;7.77;100.00;100184.78;5014295;28;20033;-62
2023/01/13 09:19:11;;;;;;;23.55;5.22;;;;;;;8.28;100.00;100258.34;5031871;28;20029;-60
2023/01/13 09:21:36;;;;;;;20.77;4.40;;;;;;;8.25;100.00;100254.91;5031533;28;20037;-60
2023/01/13 09:24:02;;;;;;;21.88;4.75;;;;;;;7.98;100.00;100196.38;5031799;28;20061;-60
2023/01/13 09:26:27;;;;;;;26.17;5.82;;;;;;;8.39;100.00;100285.06;5031699;28;20059;-61
2023/01/13 09:28:52;;;;;;;25.02;4.95;;;;;;;8.39;100.00;100295.56;5013850;28;20041;-61
2023/01/13 09:31:18;;;;;;;22.73;5.63;;;;;;;8.01;100.00;100221.63;5031609;28;20037;-60
2023/01/13 09:36:27;;;;;;;22.92;4.55;;;;;;;8.52;100.00;100287.31;5031081;28;20125;-60
2023/01/13 09:38:52;;;;;;;18.95;4.25;;;;;;;8.11;100.00;100218.66;5031819;28;20120;-61
2023/01/13 09:44:11;;;;;;;;;;;;;;;8.76;100.00;100315.31;5031650;28;20409;-59
2023/01/13 09:46:50;;;;;;;25.92;4.90;;;;;;;8.24;100.00;100225.22;5013935;28;19914;-59
2023/01/13 09:49:20;;;;;;;19.23;4.55;;;;;;;8.80;100.00;100316.97;5013638;28;20211;-60
2023/01/13 09:51:53;;;;;;;16.73;4.30;;;;;;;8.36;100.00;100250.22;5031846;28;20112;-60
2023/01/13 09:54:40;;;;;;;18.65;4.35;;;;;;;8.86;100.00;100325.50;5013606;28;20033;-61
2023/01/13 09:57:14;;;;;;;22.17;4.78;;;;;;;8.55;100.00;100280.19;5013667;28;20037;-60
2023/01/13 09:59:39;;;;;;;20.88;4.15;;;;;;;8.44;100.00;100258.69;5012772;28;20120;-60
2023/01/13 10:02:42;;;;;;;21.85;4.80;;;;;;;8.84;100.00;100352.69;5013019;28;20132;-60
2023/01/13 10:05:16;;;;;;;16.25;4.32;;;;;;;8.73;100.00;100342.53;5030602;28;20114;-61
2023/01/13 10:07:51;;;;;;;23.85;4.95;;;;;;;8.79;100.00;100360.69;5012184;28;20321;-60
2023/01/13 10:10:24;;;;;;;17.98;3.95;;;;;;;8.30;100.00;100269.63;5013218;28;20029;-60
2023/01/13 10:15:33;;;;;;;21.02;4.88;;;;;;;8.31;100.00;100288.84;5030885;28;20408;-61
2023/01/13 10:18:06;;;;;;;18.73;4.45;;;;;;;8.79;100.00;100380.84;5030518;28;20037;-60
2023/01/13 10:21:04;;;;;;;17.52;3.88;;;;;;;8.80;100.00;100365.06;5030976;28;20128;-60
2023/01/13 10:23:39;;;;;;;23.50;3.88;;;;;;;8.29;100.00;100291.50;4998411;28;20052;-60
2023/01/13 10:26:26;;;;;;;16.80;4.18;;;;;;;8.79;100.00;100370.34;5030488;28;20041;-60
2023/01/13 10:28:53;;;;;;;14.13;3.47;;;;;;;8.34;100.00;100299.25;5030081;28;20036;-60
2023/01/13 10:31:19;;;;;;;20.88;4.20;;;;;;;8.44;100.00;100322.50;5030539;28;20447;-61
2023/01/13 10:33:45;;;;;;;15.35;4.03;;;;;;;8.44;100.00;100332.97;5011683;28;20041;-59
2023/01/13 10:36:12;;;;;;;18.73;3.92;;;;;;;8.38;100.00;100325.31;5030228;28;20038;-61
2023/01/13 10:38:40;;;;;;;17.17;3.83;;;;;;;8.47;100.00;100338.13;5030130;28;20478;-59
2023/01/13 10:41:19;;;;;;;19.45;4.80;;;;;;;8.66;100.00;100376.91;5030301;28;20029;-59
2023/01/13 10:43:50;;;;;;;28.08;5.60;;;;;;;8.84;100.00;100413.06;5012468;28;20068;-60
2023/01/13 10:46:17;;;;;;;19.75;4.32;;;;;;;8.78;100.00;100394.88;5029832;28;20041;-61
2023/01/13 10:48:51;;;;;;;15.73;4.13;;;;;;;8.42;100.00;100326.06;5012558;28;20164;-60
2023/01/13 10:51:37;;;;;;;11.18;3.25;;;;;;;8.92;100.00;100397.91;5029969;28;20033;-60
2023/01/13 10:54:12;;;;;;;23.55;4.60;;;;;;;8.96;100.00;100418.75;5029969;28;20107;-59
2023/01/13 10:56:42;;;;;;;14.52;3.10;;;;;;;8.97;100.00;100412.59;5029720;28;20425;-61
2023/01/13 10:59:11;;;;;;;16.85;3.85;;;;;;;8.96;100.00;100410.03;5030568;28;20033;-61
2023/01/13 11:01:36;;;;;;;18.95;3.33;;;;;;;8.61;100.00;100331.59;5030056;28;20496;-59
2023/01/13 11:04:23;;;;;;;19.90;5.20;;;;;;;9.07;100.00;100451.69;5030008;28;20112;-60
2023/01/13 11:06:48;;;;;;;17.10;3.95;;;;;;;8.96;100.00;100416.13;5011173;28;20102;-61
2023/01/13 11:09:18;;;;;;;10.18;3.35;;;;;;;8.80;100.00;100387.81;5012541;28;20136;-60
2023/01/13 11:11:46;;;;;;;18.75;4.78;;;;;;;8.67;100.00;100355.00;4995803;28;20398;-61
2023/01/13 11:14:32;;;;;;;15.93;3.85;;;;;;;9.16;100.00;100449.63;5029865;28;20037;-59
2023/01/13 11:17:00;;;;;;;17.30;4.25;;;;;;;9.18;100.00;100442.56;5029596;28;20033;-60
2023/01/13 11:19:28;;;;;;;14.70;4.32;;;;;;;9.23;100.00;100455.53;5012228;28;20455;-60
2023/01/13 11:22:04;;;;;;;19.48;4.35;;;;;;;9.17;100.00;100469.72;5012285;28;20061;-60
2023/01/13 11:24:49;;;;;;;22.52;4.32;;;;;;;9.11;100.00;100490.91;5029659;28;20452;-62
2023/01/13 11:27:20;;;;;;;19.83;4.88;;;;;;;9.07;100.00;100459.56;5011726;28;20481;-60
2023/01/13 11:30:00;;;;;;;20.77;4.75;;;;;;;9.15;100.00;100483.81;5027887;28;20488;-59
2023/01/13 11:32:27;;;;;;;18.15;3.67;;;;;;;8.79;100.00;100397.44;5010682;28;20065;-61
2023/01/13 11:35:13;;;;;;;19.13;4.40;;;;;;;9.20;100.00;100463.50;5010535;28;20037;-62
2023/01/13 11:37:41;;;;;;;20.27;3.95;;;;;;;8.79;100.00;100413.19;5028289;28;20037;-60
2023/01/13 11:40:18;;;;;;;19.85;4.05;;;;;;;9.25;100.00;100457.19;5010828;28;20108;-60
2023/01/13 11:43:11;;;;;;;21.02;4.18;;;;;;;9.40;100.00;100472.44;5010516;28;20075;-60
2023/01/13 11:45:57;;;;;;;17.70;4.10;;;;;;;9.03;100.00;100403.66;5011373;28;20379;-59
2023/01/13 11:48:26;;;;;;;15.68;3.78;;;;;;;9.27;100.00;100450.13;5011620;28;20421;-59
2023/01/13 11:51:15;;;;;;;13.10;4.13;;;;;;;9.13;100.00;100415.59;5029465;28;20427;-60
2023/01/13 11:53:52;;;;;;;16.25;3.85;;;;;;;9.64;100.00;100499.66;5029259;28;20105;-59
2023/01/13 11:56:23;;;;;;;14.23;3.25;;;;;;;9.77;100.00;100492.22;5029579;28;20112;-60
2023/01/13 11:58:48;;;;;;;13.43;3.05;;;;;;;9.82;100.00;100501.66;5031123;28;20034;-60
2023/01/13 12:01:28;;;;;;;17.25;3.42;;;;;;;9.88;100.00;100504.09;5032799;28;20061;-60
2023/01/13 12:04:16;;;;;;;12.23;2.88;;;;;;;9.85;100.00;100500.69;5033183;28;20033;-60
2023/01/13 12:06:43;;;;;;;16.17;3.78;;;;;;;9.37;100.00;100435.75;5032499;28;20056;-60
2023/01/13 12:09:36;;;;;;;14.60;3.90;;;;;;;9.82;100.00;100509.56;5033099;28;20069;-61
2023/01/13 12:12:21;;;;;;;9.98;3.03;;;;;;;9.80;100.00;100508.75;5032702;28;20068;-59
2023/01/13 12:15:23;;;;;;;15.43;3.55;;;;;;;9.80;100.00;100521.91;5032276;28;20026;-61
2023/01/13 12:18:14;;;;;;;12.25;2.83;;;;;;;9.80;100.00;100524.53;5031139;28;20400;-61
2023/01/13 12:21:06;;;;;;;;;;;;;;;9.83;100.00;100521.78;4979746;28;20034;-60